sensor_id;sensor_type;location;lat;lon;timestamp;P1;durP1;ratioP1;P2;durP2;ratioP2
11504;SDS011;5809;53.262;10.408;2024-02-26T00:00:19;12.40;;;7.90;;
11504;SDS011;5809;53.262;10.408;2024-02-26T00:02:46;11.87;;;7.83;;
11504;SDS011;5809;53.262;10.408;2024-02-26T00:05:12;10.70;;;7.87;;
11504;SDS011;5809;53.262;10.408;2024-02-26T00:07:39;10.73;;;8.23;;
11504;SDS011;5809;53.262;10.408;2024-02-26T00:10:07;10.07;;;8.00;;
11504;SDS011;5809;53.262;10.408;2024-02-26T00:12:34;12.27;;;8.60;;
11504;SDS011;5809;53.262;10.408;2024-02-26T00:15:01;8.83;;;7.93;;
11504;SDS011;5809;53.262;10.408;2024-02-26T00:17:29;9.20;;;7.70;;
11504;SDS011;5809;53.262;10.408;2024-02-26T00:19:56;9.77;;;7.93;;
11504;SDS011;5809;53.262;10.408;2024-02-26T00:22:23;9.43;;;7.00;;
11504;SDS011;5809;53.262;10.408;2024-02-26T00:24:50;9.90;;;7.30;;
11504;SDS011;5809;53.262;10.408;2024-02-26T00:27:16;9.60;;;7.27;;
11504;SDS011;5809;53.262;10.408;2024-02-26T00:29:44;10.73;;;7.77;;
11504;SDS011;5809;53.262;10.408;2024-02-26T00:32:10;11.37;;;8.37;;
11504;SDS011;5809;53.262;10.408;2024-02-26T00:34:38;8.43;;;7.53;;
11504;SDS011;5809;53.262;10.408;2024-02-26T00:37:05;9.27;;;7.67;;
11504;SDS011;5809;53.262;10.408;2024-02-26T00:39:32;9.83;;;8.37;;
11504;SDS011;5809;53.262;10.408;2024-02-26T00:41:59;10.87;;;8.77;;
11504;SDS011;5809;53.262;10.408;2024-02-26T00:44:26;10.77;;;9.30;;
11504;SDS011;5809;53.262;10.408;2024-02-26T00:46:53;11.83;;;9.37;;
11504;SDS011;5809;53.262;10.408;2024-02-26T00:49:20;10.10;;;8.47;;
11504;SDS011;5809;53.262;10.408;2024-02-26T00:51:48;11.57;;;9.90;;
11504;SDS011;5809;53.262;10.408;2024-02-26T00:54:15;12.60;;;10.27;;
11504;SDS011;5809;53.262;10.408;2024-02-26T00:56:41;14.57;;;10.17;;
11504;SDS011;5809;53.262;10.408;2024-02-26T00:59:09;12.37;;;9.40;;
11504;SDS011;5809;53.262;10.408;2024-02-26T01:01:36;12.53;;;11.20;;
11504;SDS011;5809;53.262;10.408;2024-02-26T01:04:03;12.23;;;10.67;;
11504;SDS011;5809;53.262;10.408;2024-02-26T01:06:30;11.43;;;9.53;;
11504;SDS011;5809;53.262;10.408;2024-02-26T01:08:58;12.00;;;10.00;;
11504;SDS011;5809;53.262;10.408;2024-02-26T01:11:25;11.60;;;10.47;;
11504;SDS011;5809;53.262;10.408;2024-02-26T01:13:52;13.63;;;10.73;;
11504;SDS011;5809;53.262;10.408;2024-02-26T01:16:21;13.53;;;11.10;;
11504;SDS011;5809;53.262;10.408;2024-02-26T01:18:48;12.03;;;10.80;;
11504;SDS011;5809;53.262;10.408;2024-02-26T01:21:15;12.27;;;10.93;;
11504;SDS011;5809;53.262;10.408;2024-02-26T01:23:42;12.07;;;10.77;;
11504;SDS011;5809;53.262;10.408;2024-02-26T01:26:10;13.33;;;10.17;;
11504;SDS011;5809;53.262;10.408;2024-02-26T01:28:37;11.30;;;10.10;;
11504;SDS011;5809;53.262;10.408;2024-02-26T01:31:04;12.63;;;10.93;;
11504;SDS011;5809;53.262;10.408;2024-02-26T01:33:33;13.80;;;11.90;;
11504;SDS011;5809;53.262;10.408;2024-02-26T01:36:00;12.17;;;10.93;;
11504;SDS011;5809;53.262;10.408;2024-02-26T01:38:27;13.60;;;11.00;;
11504;SDS011;5809;53.262;10.408;2024-02-26T01:40:54;12.30;;;11.00;;
11504;SDS011;5809;53.262;10.408;2024-02-26T01:43:22;12.60;;;10.77;;
11504;SDS011;5809;53.262;10.408;2024-02-26T01:45:49;13.03;;;11.20;;
11504;SDS011;5809;53.262;10.408;2024-02-26T01:48:16;12.53;;;11.23;;
11504;SDS011;5809;53.262;10.408;2024-02-26T01:50:43;12.60;;;11.30;;
11504;SDS011;5809;53.262;10.408;2024-02-26T01:53:10;12.13;;;10.67;;
11504;SDS011;5809;53.262;10.408;2024-02-26T01:55:36;13.93;;;10.70;;
11504;SDS011;5809;53.262;10.408;2024-02-26T01:58:04;11.47;;;10.20;;
11504;SDS011;5809;53.262;10.408;2024-02-26T02:00:33;12.00;;;10.70;;
11504;SDS011;5809;53.262;10.408;2024-02-26T02:03:00;11.93;;;10.23;;
11504;SDS011;5809;53.262;10.408;2024-02-26T02:05:28;12.13;;;10.30;;
11504;SDS011;5809;53.262;10.408;2024-02-26T02:07:57;11.57;;;10.03;;
11504;SDS011;5809;53.262;10.408;2024-02-26T02:10:24;11.60;;;9.53;;
11504;SDS011;5809;53.262;10.408;2024-02-26T02:12:52;11.10;;;9.57;;
11504;SDS011;5809;53.262;10.408;2024-02-26T02:15:19;11.00;;;9.87;;
11504;SDS011;5809;53.262;10.408;2024-02-26T02:17:48;9.93;;;8.97;;
11504;SDS011;5809;53.262;10.408;2024-02-26T02:20:15;10.33;;;8.73;;
11504;SDS011;5809;53.262;10.408;2024-02-26T02:22:44;10.40;;;8.80;;
11504;SDS011;5809;53.262;10.408;2024-02-26T02:25:12;9.93;;;8.93;;
11504;SDS011;5809;53.262;10.408;2024-02-26T02:27:39;9.80;;;8.77;;
11504;SDS011;5809;53.262;10.408;2024-02-26T02:30:06;12.60;;;8.73;;
11504;SDS011;5809;53.262;10.408;2024-02-26T02:32:34;11.20;;;9.80;;
11504;SDS011;5809;53.262;10.408;2024-02-26T02:35:03;10.33;;;9.33;;
11504;SDS011;5809;53.262;10.408;2024-02-26T02:37:31;10.70;;;9.50;;
11504;SDS011;5809;53.262;10.408;2024-02-26T02:39:59;11.93;;;10.10;;
11504;SDS011;5809;53.262;10.408;2024-02-26T02:42:27;12.40;;;11.10;;
11504;SDS011;5809;53.262;10.408;2024-02-26T02:44:53;12.83;;;10.37;;
11504;SDS011;5809;53.262;10.408;2024-02-26T02:47:20;12.13;;;10.97;;
11504;SDS011;5809;53.262;10.408;2024-02-26T02:49:48;15.03;;;11.10;;
11504;SDS011;5809;53.262;10.408;2024-02-26T02:52:15;12.07;;;10.37;;
11504;SDS011;5809;53.262;10.408;2024-02-26T02:54:42;12.53;;;10.87;;
11504;SDS011;5809;53.262;10.408;2024-02-26T02:57:10;12.00;;;10.20;;
11504;SDS011;5809;53.262;10.408;2024-02-26T02:59:37;11.80;;;10.50;;
11504;SDS011;5809;53.262;10.408;2024-02-26T03:02:04;12.10;;;9.80;;
11504;SDS011;5809;53.262;10.408;2024-02-26T03:04:31;11.00;;;9.90;;
11504;SDS011;5809;53.262;10.408;2024-02-26T03:06:58;10.77;;;9.70;;
11504;SDS011;5809;53.262;10.408;2024-02-26T03:09:25;11.13;;;10.03;;
11504;SDS011;5809;53.262;10.408;2024-02-26T03:11:52;10.23;;;9.23;;
11504;SDS011;5809;53.262;10.408;2024-02-26T03:14:20;11.00;;;9.10;;
11504;SDS011;5809;53.262;10.408;2024-02-26T03:16:47;11.93;;;10.17;;
11504;SDS011;5809;53.262;10.408;2024-02-26T03:19:14;11.57;;;9.57;;
11504;SDS011;5809;53.262;10.408;2024-02-26T03:21:42;9.47;;;8.33;;
11504;SDS011;5809;53.262;10.408;2024-02-26T03:24:08;9.73;;;8.30;;
11504;SDS011;5809;53.262;10.408;2024-02-26T03:26:37;8.77;;;7.87;;
11504;SDS011;5809;53.262;10.408;2024-02-26T03:29:04;8.80;;;7.90;;
11504;SDS011;5809;53.262;10.408;2024-02-26T03:31:32;9.37;;;7.90;;
11504;SDS011;5809;53.262;10.408;2024-02-26T03:33:59;9.23;;;8.23;;
11504;SDS011;5809;53.262;10.408;2024-02-26T03:36:26;9.50;;;8.60;;
11504;SDS011;5809;53.262;10.408;2024-02-26T03:38:53;10.13;;;8.40;;
11504;SDS011;5809;53.262;10.408;2024-02-26T03:41:20;9.27;;;8.10;;
11504;SDS011;5809;53.262;10.408;2024-02-26T03:43:45;10.23;;;8.57;;
11504;SDS011;5809;53.262;10.408;2024-02-26T03:46:12;9.80;;;8.80;;
11504;SDS011;5809;53.262;10.408;2024-02-26T03:48:41;10.30;;;8.50;;
11504;SDS011;5809;53.262;10.408;2024-02-26T03:51:08;11.00;;;9.17;;
11504;SDS011;5809;53.262;10.408;2024-02-26T03:53:35;10.30;;;9.30;;
11504;SDS011;5809;53.262;10.408;2024-02-26T03:56:03;10.43;;;9.20;;
11504;SDS011;5809;53.262;10.408;2024-02-26T03:58:30;11.90;;;9.23;;
11504;SDS011;5809;53.262;10.408;2024-02-26T04:00:57;10.13;;;9.10;;
11504;SDS011;5809;53.262;10.408;2024-02-26T04:03:24;10.97;;;9.43;;
11504;SDS011;5809;53.262;10.408;2024-02-26T04:05:53;9.80;;;8.80;;
11504;SDS011;5809;53.262;10.408;2024-02-26T04:08:20;9.60;;;8.10;;
11504;SDS011;5809;53.262;10.408;2024-02-26T04:10:46;8.50;;;7.63;;
11504;SDS011;5809;53.262;10.408;2024-02-26T04:13:13;8.83;;;7.83;;
11504;SDS011;5809;53.262;10.408;2024-02-26T04:15:40;8.50;;;7.03;;
11504;SDS011;5809;53.262;10.408;2024-02-26T04:18:07;8.40;;;7.57;;
11504;SDS011;5809;53.262;10.408;2024-02-26T04:20:34;9.57;;;7.77;;
11504;SDS011;5809;53.262;10.408;2024-02-26T04:23:03;10.40;;;8.20;;
11504;SDS011;5809;53.262;10.408;2024-02-26T04:25:30;10.20;;;8.70;;
11504;SDS011;5809;53.262;10.408;2024-02-26T04:27:57;11.30;;;9.80;;
11504;SDS011;5809;53.262;10.408;2024-02-26T04:30:24;10.70;;;8.97;;
11504;SDS011;5809;53.262;10.408;2024-02-26T04:32:50;9.77;;;8.67;;
11504;SDS011;5809;53.262;10.408;2024-02-26T04:35:17;12.07;;;9.97;;
11504;SDS011;5809;53.262;10.408;2024-02-26T04:37:44;10.97;;;9.87;;
11504;SDS011;5809;53.262;10.408;2024-02-26T04:40:13;29.50;;;25.53;;
11504;SDS011;5809;53.262;10.408;2024-02-26T04:42:40;29.00;;;25.57;;
11504;SDS011;5809;53.262;10.408;2024-02-26T04:45:07;19.23;;;15.70;;
11504;SDS011;5809;53.262;10.408;2024-02-26T04:47:34;17.23;;;15.43;;
11504;SDS011;5809;53.262;10.408;2024-02-26T04:50:01;14.13;;;12.67;;
11504;SDS011;5809;53.262;10.408;2024-02-26T04:52:28;12.90;;;9.70;;
11504;SDS011;5809;53.262;10.408;2024-02-26T04:54:55;11.30;;;8.90;;
11504;SDS011;5809;53.262;10.408;2024-02-26T04:57:23;10.93;;;8.60;;
11504;SDS011;5809;53.262;10.408;2024-02-26T04:59:51;12.53;;;8.53;;
11504;SDS011;5809;53.262;10.408;2024-02-26T05:02:18;9.43;;;8.43;;
11504;SDS011;5809;53.262;10.408;2024-02-26T05:04:44;10.53;;;8.13;;
11504;SDS011;5809;53.262;10.408;2024-02-26T05:07:12;9.47;;;8.47;;
11504;SDS011;5809;53.262;10.408;2024-02-26T05:09:39;11.27;;;9.07;;
11504;SDS011;5809;53.262;10.408;2024-02-26T05:12:07;9.83;;;8.70;;
11504;SDS011;5809;53.262;10.408;2024-02-26T05:14:35;10.10;;;8.73;;
11504;SDS011;5809;53.262;10.408;2024-02-26T05:17:02;9.90;;;8.90;;
11504;SDS011;5809;53.262;10.408;2024-02-26T05:19:29;10.83;;;9.33;;
11504;SDS011;5809;53.262;10.408;2024-02-26T05:21:56;9.50;;;8.50;;
11504;SDS011;5809;53.262;10.408;2024-02-26T05:24:22;10.93;;;9.03;;
11504;SDS011;5809;53.262;10.408;2024-02-26T05:26:50;12.40;;;9.33;;
11504;SDS011;5809;53.262;10.408;2024-02-26T05:29:16;9.43;;;8.33;;
11504;SDS011;5809;53.262;10.408;2024-02-26T05:31:45;10.40;;;8.10;;
11504;SDS011;5809;53.262;10.408;2024-02-26T05:34:12;10.93;;;8.33;;
11504;SDS011;5809;53.262;10.408;2024-02-26T05:36:39;9.33;;;8.00;;
11504;SDS011;5809;53.262;10.408;2024-02-26T05:39:06;10.43;;;8.33;;
11504;SDS011;5809;53.262;10.408;2024-02-26T05:41:33;10.20;;;8.03;;
11504;SDS011;5809;53.262;10.408;2024-02-26T05:44:00;11.47;;;7.33;;
11504;SDS011;5809;53.262;10.408;2024-02-26T05:46:27;11.03;;;8.63;;
11504;SDS011;5809;53.262;10.408;2024-02-26T05:48:56;8.67;;;7.73;;
11504;SDS011;5809;53.262;10.408;2024-02-26T05:51:22;11.50;;;8.37;;
11504;SDS011;5809;53.262;10.408;2024-02-26T05:53:49;10.20;;;8.70;;
11504;SDS011;5809;53.262;10.408;2024-02-26T05:56:19;11.03;;;9.40;;
11504;SDS011;5809;53.262;10.408;2024-02-26T05:58:46;16.63;;;9.20;;
11504;SDS011;5809;53.262;10.408;2024-02-26T06:01:14;14.70;;;9.70;;
11504;SDS011;5809;53.262;10.408;2024-02-26T06:03:42;11.83;;;10.23;;
11504;SDS011;5809;53.262;10.408;2024-02-26T06:06:10;11.90;;;10.60;;
11504;SDS011;5809;53.262;10.408;2024-02-26T06:08:37;11.67;;;10.57;;
11504;SDS011;5809;53.262;10.408;2024-02-26T06:11:04;12.03;;;10.60;;
11504;SDS011;5809;53.262;10.408;2024-02-26T06:13:32;12.40;;;10.80;;
11504;SDS011;5809;53.262;10.408;2024-02-26T06:15:59;11.57;;;10.37;;
11504;SDS011;5809;53.262;10.408;2024-02-26T06:18:26;12.90;;;10.43;;
11504;SDS011;5809;53.262;10.408;2024-02-26T06:20:53;11.83;;;10.63;;
11504;SDS011;5809;53.262;10.408;2024-02-26T06:23:21;12.33;;;11.03;;
11504;SDS011;5809;53.262;10.408;2024-02-26T06:25:48;11.20;;;10.03;;
11504;SDS011;5809;53.262;10.408;2024-02-26T06:28:15;10.97;;;9.30;;
11504;SDS011;5809;53.262;10.408;2024-02-26T06:30:41;11.03;;;9.93;;
11504;SDS011;5809;53.262;10.408;2024-02-26T06:33:08;10.70;;;9.60;;
11504;SDS011;5809;53.262;10.408;2024-02-26T06:35:35;11.20;;;10.10;;
11504;SDS011;5809;53.262;10.408;2024-02-26T06:38:02;10.53;;;9.43;;
11504;SDS011;5809;53.262;10.408;2024-02-26T06:40:31;12.67;;;10.27;;
11504;SDS011;5809;53.262;10.408;2024-02-26T06:42:57;10.90;;;9.80;;
11504;SDS011;5809;53.262;10.408;2024-02-26T06:45:24;10.50;;;9.50;;
11504;SDS011;5809;53.262;10.408;2024-02-26T06:47:51;10.53;;;9.13;;
11504;SDS011;5809;53.262;10.408;2024-02-26T06:50:18;11.40;;;10.27;;
11504;SDS011;5809;53.262;10.408;2024-02-26T06:52:45;11.13;;;9.97;;
11504;SDS011;5809;53.262;10.408;2024-02-26T06:55:12;10.57;;;9.47;;
11504;SDS011;5809;53.262;10.408;2024-02-26T06:57:41;10.33;;;9.23;;
11504;SDS011;5809;53.262;10.408;2024-02-26T07:00:08;12.43;;;10.73;;
11504;SDS011;5809;53.262;10.408;2024-02-26T07:02:39;11.13;;;10.00;;
11504;SDS011;5809;53.262;10.408;2024-02-26T07:05:06;11.70;;;10.03;;
11504;SDS011;5809;53.262;10.408;2024-02-26T07:07:34;9.80;;;8.80;;
11504;SDS011;5809;53.262;10.408;2024-02-26T07:10:01;9.93;;;8.93;;
11504;SDS011;5809;53.262;10.408;2024-02-26T07:12:28;12.10;;;8.67;;
11504;SDS011;5809;53.262;10.408;2024-02-26T07:14:57;10.23;;;8.30;;
11504;SDS011;5809;53.262;10.408;2024-02-26T07:17:24;9.53;;;8.47;;
11504;SDS011;5809;53.262;10.408;2024-02-26T07:19:50;9.30;;;8.30;;
11504;SDS011;5809;53.262;10.408;2024-02-26T07:22:18;11.47;;;7.93;;
11504;SDS011;5809;53.262;10.408;2024-02-26T07:24:44;8.50;;;7.60;;
11504;SDS011;5809;53.262;10.408;2024-02-26T07:27:12;10.80;;;8.10;;
11504;SDS011;5809;53.262;10.408;2024-02-26T07:29:38;9.07;;;7.83;;
11504;SDS011;5809;53.262;10.408;2024-02-26T07:32:07;9.77;;;8.53;;
11504;SDS011;5809;53.262;10.408;2024-02-26T07:34:34;12.10;;;9.03;;
11504;SDS011;5809;53.262;10.408;2024-02-26T07:37:02;9.33;;;8.30;;
11504;SDS011;5809;53.262;10.408;2024-02-26T07:39:29;11.23;;;9.10;;
11504;SDS011;5809;53.262;10.408;2024-02-26T07:41:56;10.07;;;8.50;;
11504;SDS011;5809;53.262;10.408;2024-02-26T07:44:23;8.87;;;7.97;;
11504;SDS011;5809;53.262;10.408;2024-02-26T07:46:50;9.10;;;8.20;;
11504;SDS011;5809;53.262;10.408;2024-02-26T07:49:18;8.43;;;7.50;;
11504;SDS011;5809;53.262;10.408;2024-02-26T07:51:45;8.37;;;7.57;;
11504;SDS011;5809;53.262;10.408;2024-02-26T07:54:12;9.20;;;8.10;;
11504;SDS011;5809;53.262;10.408;2024-02-26T07:56:41;8.47;;;6.97;;
11504;SDS011;5809;53.262;10.408;2024-02-26T07:59:08;9.10;;;7.30;;
11504;SDS011;5809;53.262;10.408;2024-02-26T08:01:35;6.97;;;6.27;;
11504;SDS011;5809;53.262;10.408;2024-02-26T08:04:04;7.73;;;6.93;;
11504;SDS011;5809;53.262;10.408;2024-02-26T08:06:32;7.83;;;6.93;;
11504;SDS011;5809;53.262;10.408;2024-02-26T08:08:59;7.37;;;6.53;;
11504;SDS011;5809;53.262;10.408;2024-02-26T08:11:26;7.37;;;6.47;;
11504;SDS011;5809;53.262;10.408;2024-02-26T08:13:53;6.93;;;5.70;;
11504;SDS011;5809;53.262;10.408;2024-02-26T08:16:19;6.90;;;6.10;;
11504;SDS011;5809;53.262;10.408;2024-02-26T08:18:47;6.60;;;6.00;;
11504;SDS011;5809;53.262;10.408;2024-02-26T08:21:13;9.03;;;6.57;;
11504;SDS011;5809;53.262;10.408;2024-02-26T08:23:42;6.57;;;5.87;;
11504;SDS011;5809;53.262;10.408;2024-02-26T08:26:09;6.20;;;5.53;;
11504;SDS011;5809;53.262;10.408;2024-02-26T08:28:37;6.27;;;5.67;;
11504;SDS011;5809;53.262;10.408;2024-02-26T08:31:04;6.27;;;5.67;;
11504;SDS011;5809;53.262;10.408;2024-02-26T08:33:30;6.57;;;5.87;;
11504;SDS011;5809;53.262;10.408;2024-02-26T08:35:59;7.17;;;6.23;;
11504;SDS011;5809;53.262;10.408;2024-02-26T08:38:25;7.90;;;6.57;;
11504;SDS011;5809;53.262;10.408;2024-02-26T08:40:53;7.10;;;6.03;;
11504;SDS011;5809;53.262;10.408;2024-02-26T08:43:20;6.40;;;5.80;;
11504;SDS011;5809;53.262;10.408;2024-02-26T08:45:47;6.47;;;5.70;;
11504;SDS011;5809;53.262;10.408;2024-02-26T08:48:14;6.10;;;5.50;;
11504;SDS011;5809;53.262;10.408;2024-02-26T08:50:42;6.60;;;5.70;;
11504;SDS011;5809;53.262;10.408;2024-02-26T08:53:08;6.43;;;5.77;;
11504;SDS011;5809;53.262;10.408;2024-02-26T08:55:35;5.80;;;5.30;;
11504;SDS011;5809;53.262;10.408;2024-02-26T08:58:03;7.27;;;5.57;;
11504;SDS011;5809;53.262;10.408;2024-02-26T09:00:30;9.00;;;6.07;;
11504;SDS011;5809;53.262;10.408;2024-02-26T09:02:57;6.70;;;6.10;;
11504;SDS011;5809;53.262;10.408;2024-02-26T09:05:24;6.67;;;6.00;;
11504;SDS011;5809;53.262;10.408;2024-02-26T09:07:51;7.00;;;6.30;;
11504;SDS011;5809;53.262;10.408;2024-02-26T09:10:18;6.37;;;5.53;;
11504;SDS011;5809;53.262;10.408;2024-02-26T09:12:45;6.50;;;5.90;;
11504;SDS011;5809;53.262;10.408;2024-02-26T09:15:14;7.30;;;6.60;;
11504;SDS011;5809;53.262;10.408;2024-02-26T09:17:40;9.70;;;8.53;;
11504;SDS011;5809;53.262;10.408;2024-02-26T09:20:07;7.23;;;6.50;;
11504;SDS011;5809;53.262;10.408;2024-02-26T09:22:35;7.77;;;6.43;;
11504;SDS011;5809;53.262;10.408;2024-02-26T09:25:03;7.70;;;6.90;;
11504;SDS011;5809;53.262;10.408;2024-02-26T09:27:31;8.40;;;6.80;;
11504;SDS011;5809;53.262;10.408;2024-02-26T09:29:58;7.20;;;6.40;;
11504;SDS011;5809;53.262;10.408;2024-02-26T09:32:26;7.80;;;6.53;;
11504;SDS011;5809;53.262;10.408;2024-02-26T09:34:53;9.53;;;6.37;;
11504;SDS011;5809;53.262;10.408;2024-02-26T09:37:20;6.53;;;5.87;;
11504;SDS011;5809;53.262;10.408;2024-02-26T09:39:46;6.47;;;5.63;;
11504;SDS011;5809;53.262;10.408;2024-02-26T09:42:13;6.13;;;5.53;;
11504;SDS011;5809;53.262;10.408;2024-02-26T09:44:40;6.30;;;5.63;;
11504;SDS011;5809;53.262;10.408;2024-02-26T09:47:09;6.77;;;5.73;;
11504;SDS011;5809;53.262;10.408;2024-02-26T09:49:39;6.00;;;5.40;;
11504;SDS011;5809;53.262;10.408;2024-02-26T09:52:07;6.13;;;5.53;;
11504;SDS011;5809;53.262;10.408;2024-02-26T09:54:35;6.40;;;5.60;;
11504;SDS011;5809;53.262;10.408;2024-02-26T09:57:02;6.83;;;5.80;;
11504;SDS011;5809;53.262;10.408;2024-02-26T09:59:31;6.60;;;5.90;;
11504;SDS011;5809;53.262;10.408;2024-02-26T10:02:04;6.30;;;5.70;;
11504;SDS011;5809;53.262;10.408;2024-02-26T10:04:35;5.97;;;5.37;;
11504;SDS011;5809;53.262;10.408;2024-02-26T10:07:04;6.03;;;5.30;;
11504;SDS011;5809;53.262;10.408;2024-02-26T10:09:31;5.83;;;5.33;;
11504;SDS011;5809;53.262;10.408;2024-02-26T10:11:58;10.37;;;5.40;;
11504;SDS011;5809;53.262;10.408;2024-02-26T10:14:25;7.87;;;5.93;;
11504;SDS011;5809;53.262;10.408;2024-02-26T10:16:52;6.00;;;5.37;;
11504;SDS011;5809;53.262;10.408;2024-02-26T10:19:25;9.03;;;4.70;;
11504;SDS011;5809;53.262;10.408;2024-02-26T10:21:54;6.43;;;4.83;;
11504;SDS011;5809;53.262;10.408;2024-02-26T10:24:24;5.90;;;4.83;;
11504;SDS011;5809;53.262;10.408;2024-02-26T10:26:50;5.63;;;5.10;;
11504;SDS011;5809;53.262;10.408;2024-02-26T10:29:18;9.50;;;4.30;;
11504;SDS011;5809;53.262;10.408;2024-02-26T10:31:45;7.40;;;4.47;;
11504;SDS011;5809;53.262;10.408;2024-02-26T10:34:12;4.93;;;3.93;;
11504;SDS011;5809;53.262;10.408;2024-02-26T10:36:41;4.87;;;3.80;;
11504;SDS011;5809;53.262;10.408;2024-02-26T10:39:09;4.63;;;4.17;;
11504;SDS011;5809;53.262;10.408;2024-02-26T10:41:39;5.33;;;3.87;;
11504;SDS011;5809;53.262;10.408;2024-02-26T10:44:08;4.47;;;4.07;;
11504;SDS011;5809;53.262;10.408;2024-02-26T10:46:37;4.10;;;3.70;;
11504;SDS011;5809;53.262;10.408;2024-02-26T10:49:04;3.58;;;3.28;;
11504;SDS011;5809;53.262;10.408;2024-02-26T10:51:33;4.50;;;3.67;;
11504;SDS011;5809;53.262;10.408;2024-02-26T10:54:04;4.63;;;3.80;;
11504;SDS011;5809;53.262;10.408;2024-02-26T10:56:34;3.97;;;3.55;;
11504;SDS011;5809;53.262;10.408;2024-02-26T10:59:05;6.10;;;5.22;;
11504;SDS011;5809;53.262;10.408;2024-02-26T11:01:35;4.85;;;4.35;;
11504;SDS011;5809;53.262;10.408;2024-02-26T11:04:03;5.20;;;4.38;;
11504;SDS011;5809;53.262;10.408;2024-02-26T11:06:31;5.93;;;4.80;;
11504;SDS011;5809;53.262;10.408;2024-02-26T11:09:00;4.72;;;3.65;;
11504;SDS011;5809;53.262;10.408;2024-02-26T11:11:27;5.38;;;4.60;;
11504;SDS011;5809;53.262;10.408;2024-02-26T11:13:55;4.80;;;4.03;;
11504;SDS011;5809;53.262;10.408;2024-02-26T11:16:24;7.32;;;6.40;;
11504;SDS011;5809;53.262;10.408;2024-02-26T11:18:53;4.88;;;4.38;;
11504;SDS011;5809;53.262;10.408;2024-02-26T11:21:21;5.00;;;4.47;;
11504;SDS011;5809;53.262;10.408;2024-02-26T11:23:52;5.05;;;4.55;;
11504;SDS011;5809;53.262;10.408;2024-02-26T11:26:19;3.78;;;3.45;;
11504;SDS011;5809;53.262;10.408;2024-02-26T11:28:47;3.28;;;2.97;;
11504;SDS011;5809;53.262;10.408;2024-02-26T11:31:15;3.50;;;3.20;;
11504;SDS011;5809;53.262;10.408;2024-02-26T11:33:44;3.47;;;3.08;;
11504;SDS011;5809;53.262;10.408;2024-02-26T11:36:13;3.25;;;2.95;;
11504;SDS011;5809;53.262;10.408;2024-02-26T11:38:40;3.10;;;2.80;;
11504;SDS011;5809;53.262;10.408;2024-02-26T11:41:07;3.90;;;2.70;;
11504;SDS011;5809;53.262;10.408;2024-02-26T11:43:49;5.13;;;2.50;;
11504;SDS011;5809;53.262;10.408;2024-02-26T11:46:27;2.95;;;2.40;;
11504;SDS011;5809;53.262;10.408;2024-02-26T11:48:59;2.53;;;2.22;;
11504;SDS011;5809;53.262;10.408;2024-02-26T11:51:28;2.70;;;2.50;;
11504;SDS011;5809;53.262;10.408;2024-02-26T11:53:59;2.67;;;2.20;;
11504;SDS011;5809;53.262;10.408;2024-02-26T11:56:26;2.95;;;2.40;;
11504;SDS011;5809;53.262;10.408;2024-02-26T11:58:58;3.00;;;2.70;;
11504;SDS011;5809;53.262;10.408;2024-02-26T12:01:41;2.60;;;2.33;;
11504;SDS011;5809;53.262;10.408;2024-02-26T12:04:14;7.05;;;5.47;;
11504;SDS011;5809;53.262;10.408;2024-02-26T12:06:45;2.70;;;2.50;;
11504;SDS011;5809;53.262;10.408;2024-02-26T12:09:13;2.58;;;2.38;;
11504;SDS011;5809;53.262;10.408;2024-02-26T12:11:56;3.97;;;2.67;;
11504;SDS011;5809;53.262;10.408;2024-02-26T12:14:24;2.53;;;2.33;;
11504;SDS011;5809;53.262;10.408;2024-02-26T12:16:52;2.60;;;2.30;;
11504;SDS011;5809;53.262;10.408;2024-02-26T12:19:22;2.70;;;2.50;;
11504;SDS011;5809;53.262;10.408;2024-02-26T12:21:50;2.97;;;2.53;;
11504;SDS011;5809;53.262;10.408;2024-02-26T12:24:19;11.43;;;9.65;;
11504;SDS011;5809;53.262;10.408;2024-02-26T12:26:47;3.72;;;3.40;;
11504;SDS011;5809;53.262;10.408;2024-02-26T12:29:13;4.57;;;3.45;;
11504;SDS011;5809;53.262;10.408;2024-02-26T12:31:40;3.80;;;3.38;;
11504;SDS011;5809;53.262;10.408;2024-02-26T12:34:08;6.55;;;5.65;;
11504;SDS011;5809;53.262;10.408;2024-02-26T12:36:37;3.10;;;2.85;;
11504;SDS011;5809;53.262;10.408;2024-02-26T12:39:05;3.00;;;2.70;;
11504;SDS011;5809;53.262;10.408;2024-02-26T12:41:32;3.63;;;3.33;;
11504;SDS011;5809;53.262;10.408;2024-02-26T12:43:59;6.40;;;3.30;;
11504;SDS011;5809;53.262;10.408;2024-02-26T12:46:26;5.75;;;2.60;;
11504;SDS011;5809;53.262;10.408;2024-02-26T12:48:54;3.35;;;3.05;;
11504;SDS011;5809;53.262;10.408;2024-02-26T12:51:23;5.07;;;3.45;;
11504;SDS011;5809;53.262;10.408;2024-02-26T12:53:52;4.03;;;3.30;;
11504;SDS011;5809;53.262;10.408;2024-02-26T12:56:20;8.43;;;6.68;;
11504;SDS011;5809;53.262;10.408;2024-02-26T12:58:48;3.15;;;2.75;;
11504;SDS011;5809;53.262;10.408;2024-02-26T13:01:16;5.25;;;4.25;;
11504;SDS011;5809;53.262;10.408;2024-02-26T13:03:47;2.60;;;2.40;;
11504;SDS011;5809;53.262;10.408;2024-02-26T13:06:15;5.93;;;5.00;;
11504;SDS011;5809;53.262;10.408;2024-02-26T13:08:43;5.90;;;4.10;;
11504;SDS011;5809;53.262;10.408;2024-02-26T13:11:11;3.38;;;3.08;;
11504;SDS011;5809;53.262;10.408;2024-02-26T13:13:38;3.95;;;2.30;;
11504;SDS011;5809;53.262;10.408;2024-02-26T13:16:05;6.05;;;4.20;;
11504;SDS011;5809;53.262;10.408;2024-02-26T13:18:33;3.80;;;3.20;;
11504;SDS011;5809;53.262;10.408;2024-02-26T13:21:11;5.38;;;3.60;;
11504;SDS011;5809;53.262;10.408;2024-02-26T13:23:40;5.30;;;3.30;;
11504;SDS011;5809;53.262;10.408;2024-02-26T13:26:07;1.85;;;1.67;;
11504;SDS011;5809;53.262;10.408;2024-02-26T13:28:36;2.40;;;2.00;;
11504;SDS011;5809;53.262;10.408;2024-02-26T13:31:03;2.00;;;1.90;;
11504;SDS011;5809;53.262;10.408;2024-02-26T13:33:32;4.22;;;1.70;;
11504;SDS011;5809;53.262;10.408;2024-02-26T13:36:00;3.05;;;2.03;;
11504;SDS011;5809;53.262;10.408;2024-02-26T13:38:27;6.97;;;5.43;;
11504;SDS011;5809;53.262;10.408;2024-02-26T13:40:54;2.40;;;2.20;;
11504;SDS011;5809;53.262;10.408;2024-02-26T13:43:21;2.80;;;2.45;;
11504;SDS011;5809;53.262;10.408;2024-02-26T13:45:49;2.28;;;2.08;;
11504;SDS011;5809;53.262;10.408;2024-02-26T13:48:16;2.13;;;1.95;;
11504;SDS011;5809;53.262;10.408;2024-02-26T13:50:43;2.45;;;2.25;;
11504;SDS011;5809;53.262;10.408;2024-02-26T13:53:11;3.28;;;2.35;;
11504;SDS011;5809;53.262;10.408;2024-02-26T13:55:38;2.53;;;2.33;;
11504;SDS011;5809;53.262;10.408;2024-02-26T13:58:07;3.35;;;2.95;;
11504;SDS011;5809;53.262;10.408;2024-02-26T14:00:37;3.67;;;2.78;;
11504;SDS011;5809;53.262;10.408;2024-02-26T14:03:05;2.70;;;2.50;;
11504;SDS011;5809;53.262;10.408;2024-02-26T14:05:32;3.47;;;2.90;;
11504;SDS011;5809;53.262;10.408;2024-02-26T14:07:59;4.18;;;2.90;;
11504;SDS011;5809;53.262;10.408;2024-02-26T14:10:26;5.00;;;3.08;;
11504;SDS011;5809;53.262;10.408;2024-02-26T14:12:53;4.40;;;3.47;;
11504;SDS011;5809;53.262;10.408;2024-02-26T14:15:20;3.88;;;3.47;;
11504;SDS011;5809;53.262;10.408;2024-02-26T14:17:47;4.43;;;3.97;;
11504;SDS011;5809;53.262;10.408;2024-02-26T14:20:22;4.75;;;4.20;;
11504;SDS011;5809;53.262;10.408;2024-02-26T14:22:49;3.83;;;3.40;;
11504;SDS011;5809;53.262;10.408;2024-02-26T14:25:18;4.05;;;3.33;;
11504;SDS011;5809;53.262;10.408;2024-02-26T14:27:45;4.03;;;3.60;;
11504;SDS011;5809;53.262;10.408;2024-02-26T14:30:12;5.50;;;3.83;;
11504;SDS011;5809;53.262;10.408;2024-02-26T14:32:40;4.40;;;4.00;;
11504;SDS011;5809;53.262;10.408;2024-02-26T14:35:07;4.63;;;4.10;;
11504;SDS011;5809;53.262;10.408;2024-02-26T14:37:36;4.20;;;3.80;;
11504;SDS011;5809;53.262;10.408;2024-02-26T14:40:03;7.45;;;4.30;;
11504;SDS011;5809;53.262;10.408;2024-02-26T14:42:31;4.80;;;4.30;;